sensor_id;sensor_type;location;lat;lon;timestamp;temperature;humidity
35804;DHT22;21924;51.934;7.414;2023-02-28T00:02:31;1.00;99.90
35804;DHT22;21924;51.934;7.414;2023-02-28T00:05:21;0.90;99.90
35804;DHT22;21924;51.934;7.414;2023-02-28T00:08:05;0.90;99.90
35804;DHT22;21924;51.934;7.414;2023-02-28T00:10:49;0.90;99.90
35804;DHT22;21924;51.934;7.414;2023-02-28T00:13:35;0.80;99.90
35804;DHT22;21924;51.934;7.414;2023-02-28T00:16:22;0.90;99.90
35804;DHT22;21924;51.934;7.414;2023-02-28T00:19:06;1.00;99.90
35804;DHT22;21924;51.934;7.414;2023-02-28T00:21:50;0.90;99.90
35804;DHT22;21924;51.934;7.414;2023-02-28T00:24:34;0.90;99.90
35804;DHT22;21924;51.934;7.414;2023-02-28T00:27:18;0.90;99.90
35804;DHT22;21924;51.934;7.414;2023-02-28T00:30:04;0.80;99.90
35804;DHT22;21924;51.934;7.414;2023-02-28T00:32:50;0.70;99.90
35804;DHT22;21924;51.934;7.414;2023-02-28T00:35:34;0.70;99.90
35804;DHT22;21924;51.934;7.414;2023-02-28T00:38:19;0.80;99.90
35804;DHT22;21924;51.934;7.414;2023-02-28T00:41:03;0.70;99.90
35804;DHT22;21924;51.934;7.414;2023-02-28T00:43:50;0.70;99.90
35804;DHT22;21924;51.934;7.414;2023-02-28T00:46:35;0.60;99.90
35804;DHT22;21924;51.934;7.414;2023-02-28T00:49:19;0.50;99.90
35804;DHT22;21924;51.934;7.414;2023-02-28T00:52:04;0.50;99.90
35804;DHT22;21924;51.934;7.414;2023-02-28T00:54:49;0.50;99.90
35804;DHT22;21924;51.934;7.414;2023-02-28T00:57:33;0.40;99.90
35804;DHT22;21924;51.934;7.414;2023-02-28T01:00:17;0.40;99.90
35804;DHT22;21924;51.934;7.414;2023-02-28T01:03:02;0.60;99.90
35804;DHT22;21924;51.934;7.414;2023-02-28T01:05:46;0.60;99.90
35804;DHT22;21924;51.934;7.414;2023-02-28T01:08:31;0.50;99.90
35804;DHT22;21924;51.934;7.414;2023-02-28T01:11:16;0.50;99.90
35804;DHT22;21924;51.934;7.414;2023-02-28T01:14:01;0.60;99.90
35804;DHT22;21924;51.934;7.414;2023-02-28T01:16:45;0.50;99.90
35804;DHT22;21924;51.934;7.414;2023-02-28T01:19:30;0.60;99.90
35804;DHT22;21924;51.934;7.414;2023-02-28T01:22:14;0.60;99.90
35804;DHT22;21924;51.934;7.414;2023-02-28T01:24:58;0.60;99.90
35804;DHT22;21924;51.934;7.414;2023-02-28T01:27:43;0.60;99.90
35804;DHT22;21924;51.934;7.414;2023-02-28T01:30:27;0.70;99.90
35804;DHT22;21924;51.934;7.414;2023-02-28T01:33:11;0.70;99.90
35804;DHT22;21924;51.934;7.414;2023-02-28T01:36:14;0.60;99.90
35804;DHT22;21924;51.934;7.414;2023-02-28T01:38:58;0.60;99.90
35804;DHT22;21924;51.934;7.414;2023-02-28T01:41:44;0.50;99.90
35804;DHT22;21924;51.934;7.414;2023-02-28T01:47:43;0.40;99.90
35804;DHT22;21924;51.934;7.414;2023-02-28T01:50:33;0.30;99.90
35804;DHT22;21924;51.934;7.414;2023-02-28T01:53:21;0.20;99.90
35804;DHT22;21924;51.934;7.414;2023-02-28T01:56:09;0.10;99.90
35804;DHT22;21924;51.934;7.414;2023-02-28T01:58:55;0.10;99.90
35804;DHT22;21924;51.934;7.414;2023-02-28T02:01:39;0.00;99.90
35804;DHT22;21924;51.934;7.414;2023-02-28T02:04:27;-0.10;99.90
35804;DHT22;21924;51.934;7.414;2023-02-28T02:07:13;-0.20;99.90
35804;DHT22;21924;51.934;7.414;2023-02-28T02:19:27;-0.60;99.90
35804;DHT22;21924;51.934;7.414;2023-02-28T02:31:53;-0.80;99.90
35804;DHT22;21924;51.934;7.414;2023-02-28T02:34:58;-0.80;99.90
35804;DHT22;21924;51.934;7.414;2023-02-28T02:38:19;-0.80;99.90
35804;DHT22;21924;51.934;7.414;2023-02-28T02:41:17;-0.70;99.90
35804;DHT22;21924;51.934;7.414;2023-02-28T02:44:24;-0.80;99.90
35804;DHT22;21924;51.934;7.414;2023-02-28T02:47:13;-0.70;99.90
35804;DHT22;21924;51.934;7.414;2023-02-28T02:50:02;-0.60;99.90
35804;DHT22;21924;51.934;7.414;2023-02-28T02:52:53;-0.70;99.90
35804;DHT22;21924;51.934;7.414;2023-02-28T02:55:42;-0.60;99.90
35804;DHT22;21924;51.934;7.414;2023-02-28T02:58:33;-0.50;99.90
35804;DHT22;21924;51.934;7.414;2023-02-28T03:01:22;-0.30;99.90
35804;DHT22;21924;51.934;7.414;2023-02-28T03:04:16;-0.20;99.90
35804;DHT22;21924;51.934;7.414;2023-02-28T03:07:00;-0.20;99.90
35804;DHT22;21924;51.934;7.414;2023-02-28T03:09:55;-0.20;99.90
35804;DHT22;21924;51.934;7.414;2023-02-28T03:12:45;-0.20;99.90
35804;DHT22;21924;51.934;7.414;2023-02-28T03:15:49;-0.20;99.90
35804;DHT22;21924;51.934;7.414;2023-02-28T03:18:40;-0.30;99.90
35804;DHT22;21924;51.934;7.414;2023-02-28T03:30:24;-0.50;99.90
35804;DHT22;21924;51.934;7.414;2023-02-28T03:33:13;-0.50;99.90
35804;DHT22;21924;51.934;7.414;2023-02-28T03:36:11;-0.50;99.90
35804;DHT22;21924;51.934;7.414;2023-02-28T03:39:05;-0.50;99.90
35804;DHT22;21924;51.934;7.414;2023-02-28T03:42:00;-0.50;99.90
35804;DHT22;21924;51.934;7.414;2023-02-28T03:44:51;-0.50;99.90
35804;DHT22;21924;51.934;7.414;2023-02-28T03:50:40;-0.70;99.90
35804;DHT22;21924;51.934;7.414;2023-02-28T03:53:28;-0.70;99.90
35804;DHT22;21924;51.934;7.414;2023-02-28T03:56:17;-0.70;99.90
35804;DHT22;21924;51.934;7.414;2023-02-28T03:59:14;-0.70;99.90
35804;DHT22;21924;51.934;7.414;2023-02-28T04:02:01;-0.80;99.90
35804;DHT22;21924;51.934;7.414;2023-02-28T04:04:46;-0.80;99.90
35804;DHT22;21924;51.934;7.414;2023-02-28T04:07:32;-0.80;99.90
35804;DHT22;21924;51.934;7.414;2023-02-28T04:10:16;-0.80;99.90
35804;DHT22;21924;51.934;7.414;2023-02-28T04:13:01;-0.70;99.90
35804;DHT22;21924;51.934;7.414;2023-02-28T04:15:45;-0.60;99.90
35804;DHT22;21924;51.934;7.414;2023-02-28T04:18:29;-0.70;99.90
35804;DHT22;21924;51.934;7.414;2023-02-28T04:21:13;-0.70;99.90
35804;DHT22;21924;51.934;7.414;2023-02-28T04:23:58;-0.80;99.90
35804;DHT22;21924;51.934;7.414;2023-02-28T04:26:46;-0.80;99.90
35804;DHT22;21924;51.934;7.414;2023-02-28T04:29:31;-0.80;99.90
35804;DHT22;21924;51.934;7.414;2023-02-28T04:32:16;-0.80;99.90
35804;DHT22;21924;51.934;7.414;2023-02-28T04:35:00;-0.90;99.90
35804;DHT22;21924;51.934;7.414;2023-02-28T04:37:44;-1.00;99.90
35804;DHT22;21924;51.934;7.414;2023-02-28T04:40:29;-0.90;99.90
35804;DHT22;21924;51.934;7.414;2023-02-28T04:43:13;-0.80;99.90
35804;DHT22;21924;51.934;7.414;2023-02-28T04:45:59;-0.80;99.90
35804;DHT22;21924;51.934;7.414;2023-02-28T04:48:44;-0.70;99.90
35804;DHT22;21924;51.934;7.414;2023-02-28T04:51:29;-0.60;99.90
35804;DHT22;21924;51.934;7.414;2023-02-28T04:54:13;-0.50;99.90
35804;DHT22;21924;51.934;7.414;2023-02-28T04:56:59;-0.50;99.90
35804;DHT22;21924;51.934;7.414;2023-02-28T04:59:45;-0.40;99.90
35804;DHT22;21924;51.934;7.414;2023-02-28T05:02:29;-0.30;99.90
35804;DHT22;21924;51.934;7.414;2023-02-28T05:05:14;-0.30;99.90
35804;DHT22;21924;51.934;7.414;2023-02-28T05:08:02;-0.40;99.90
35804;DHT22;21924;51.934;7.414;2023-02-28T05:10:46;-0.40;99.90
35804;DHT22;21924;51.934;7.414;2023-02-28T05:13:30;-0.50;99.90
35804;DHT22;21924;51.934;7.414;2023-02-28T05:16:15;-0.40;99.90
35804;DHT22;21924;51.934;7.414;2023-02-28T05:19:00;-0.50;99.90
35804;DHT22;21924;51.934;7.414;2023-02-28T05:21:53;-0.60;99.90
35804;DHT22;21924;51.934;7.414;2023-02-28T05:24:37;-0.50;99.90
35804;DHT22;21924;51.934;7.414;2023-02-28T05:27:22;-0.50;99.90
35804;DHT22;21924;51.934;7.414;2023-02-28T05:30:07;-0.60;99.90
35804;DHT22;21924;51.934;7.414;2023-02-28T05:32:54;-0.80;99.90
35804;DHT22;21924;51.934;7.414;2023-02-28T05:35:42;-0.90;99.90
35804;DHT22;21924;51.934;7.414;2023-02-28T05:38:29;-0.90;99.90
35804;DHT22;21924;51.934;7.414;2023-02-28T05:41:14;-0.90;99.90
35804;DHT22;21924;51.934;7.414;2023-02-28T05:43:59;-0.80;99.90
35804;DHT22;21924;51.934;7.414;2023-02-28T05:46:44;-0.70;99.90
35804;DHT22;21924;51.934;7.414;2023-02-28T05:49:28;-0.60;99.90
35804;DHT22;21924;51.934;7.414;2023-02-28T05:52:13;-0.60;99.90
35804;DHT22;21924;51.934;7.414;2023-02-28T05:54:57;-0.70;99.90
35804;DHT22;21924;51.934;7.414;2023-02-28T05:57:41;-0.70;99.90
35804;DHT22;21924;51.934;7.414;2023-02-28T06:00:26;-0.60;99.90
35804;DHT22;21924;51.934;7.414;2023-02-28T06:03:10;-0.50;99.90
35804;DHT22;21924;51.934;7.414;2023-02-28T06:05:54;-0.50;99.90
35804;DHT22;21924;51.934;7.414;2023-02-28T06:08:39;-0.60;99.90
35804;DHT22;21924;51.934;7.414;2023-02-28T06:11:23;-0.60;99.90
35804;DHT22;21924;51.934;7.414;2023-02-28T06:14:18;-0.70;99.90
35804;DHT22;21924;51.934;7.414;2023-02-28T06:17:03;-0.70;99.90
35804;DHT22;21924;51.934;7.414;2023-02-28T06:19:47;-0.60;99.90
35804;DHT22;21924;51.934;7.414;2023-02-28T06:22:32;-0.70;99.90
35804;DHT22;21924;51.934;7.414;2023-02-28T06:25:16;-0.70;99.90
35804;DHT22;21924;51.934;7.414;2023-02-28T06:28:01;-0.80;99.90
35804;DHT22;21924;51.934;7.414;2023-02-28T06:30:45;-0.90;99.90
35804;DHT22;21924;51.934;7.414;2023-02-28T06:33:29;-0.90;99.90
35804;DHT22;21924;51.934;7.414;2023-02-28T06:36:15;-0.80;99.90
35804;DHT22;21924;51.934;7.414;2023-02-28T06:38:59;-0.80;99.90
35804;DHT22;21924;51.934;7.414;2023-02-28T06:41:43;-0.80;99.90
35804;DHT22;21924;51.934;7.414;2023-02-28T06:44:29;-0.80;99.90
35804;DHT22;21924;51.934;7.414;2023-02-28T06:47:19;-0.70;99.90
35804;DHT22;21924;51.934;7.414;2023-02-28T06:50:04;-0.70;99.90
35804;DHT22;21924;51.934;7.414;2023-02-28T06:52:48;-0.70;99.90
35804;DHT22;21924;51.934;7.414;2023-02-28T06:55:38;-0.70;99.90
35804;DHT22;21924;51.934;7.414;2023-02-28T06:58:23;-0.70;99.90
35804;DHT22;21924;51.934;7.414;2023-02-28T07:01:08;-0.60;99.90
35804;DHT22;21924;51.934;7.414;2023-02-28T07:03:52;-0.60;99.90
35804;DHT22;21924;51.934;7.414;2023-02-28T07:06:37;-0.60;99.90
35804;DHT22;21924;51.934;7.414;2023-02-28T07:09:21;-0.50;99.90
35804;DHT22;21924;51.934;7.414;2023-02-28T07:12:06;-0.50;99.90
35804;DHT22;21924;51.934;7.414;2023-02-28T07:14:50;-0.40;99.90
35804;DHT22;21924;51.934;7.414;2023-02-28T07:17:34;-0.40;99.90
35804;DHT22;21924;51.934;7.414;2023-02-28T07:20:19;-0.30;99.90
35804;DHT22;21924;51.934;7.414;2023-02-28T07:23:03;-0.20;99.90
35804;DHT22;21924;51.934;7.414;2023-02-28T07:25:49;-0.20;99.90
35804;DHT22;21924;51.934;7.414;2023-02-28T07:28:33;-0.20;99.90
35804;DHT22;21924;51.934;7.414;2023-02-28T07:31:18;-0.20;99.90
35804;DHT22;21924;51.934;7.414;2023-02-28T07:34:02;-0.10;99.90
35804;DHT22;21924;51.934;7.414;2023-02-28T07:36:47;0.00;99.90
35804;DHT22;21924;51.934;7.414;2023-02-28T07:39:31;0.00;99.90
35804;DHT22;21924;51.934;7.414;2023-02-28T07:42:15;0.10;99.90
35804;DHT22;21924;51.934;7.414;2023-02-28T07:44:59;0.20;99.90
35804;DHT22;21924;51.934;7.414;2023-02-28T07:47:44;0.30;99.90
35804;DHT22;21924;51.934;7.414;2023-02-28T07:50:29;0.30;99.90
35804;DHT22;21924;51.934;7.414;2023-02-28T07:53:14;0.40;99.90
35804;DHT22;21924;51.934;7.414;2023-02-28T07:56:01;0.50;99.90
35804;DHT22;21924;51.934;7.414;2023-02-28T07:58:45;0.50;99.90
35804;DHT22;21924;51.934;7.414;2023-02-28T08:01:29;0.50;99.90
35804;DHT22;21924;51.934;7.414;2023-02-28T08:04:13;0.70;99.90
35804;DHT22;21924;51.934;7.414;2023-02-28T08:06:57;0.70;99.90
35804;DHT22;21924;51.934;7.414;2023-02-28T08:09:42;0.70;99.90
35804;DHT22;21924;51.934;7.414;2023-02-28T08:12:27;0.80;99.90
35804;DHT22;21924;51.934;7.414;2023-02-28T08:15:11;0.90;99.90
35804;DHT22;21924;51.934;7.414;2023-02-28T08:17:55;1.00;99.90
35804;DHT22;21924;51.934;7.414;2023-02-28T08:20:40;1.00;99.90
35804;DHT22;21924;51.934;7.414;2023-02-28T08:23:24;1.10;99.90
35804;DHT22;21924;51.934;7.414;2023-02-28T08:26:08;1.10;99.90
35804;DHT22;21924;51.934;7.414;2023-02-28T08:28:53;1.30;99.90
35804;DHT22;21924;51.934;7.414;2023-02-28T08:31:37;1.40;99.90
35804;DHT22;21924;51.934;7.414;2023-02-28T08:34:22;1.40;99.90
35804;DHT22;21924;51.934;7.414;2023-02-28T08:37:07;1.50;99.90
35804;DHT22;21924;51.934;7.414;2023-02-28T08:39:51;1.60;99.90
35804;DHT22;21924;51.934;7.414;2023-02-28T08:42:35;1.60;99.90
35804;DHT22;21924;51.934;7.414;2023-02-28T08:45:19;1.70;99.90
35804;DHT22;21924;51.934;7.414;2023-02-28T08:48:04;1.80;99.90
35804;DHT22;21924;51.934;7.414;2023-02-28T08:51:15;1.90;99.90
35804;DHT22;21924;51.934;7.414;2023-02-28T08:54:05;1.90;99.90
35804;DHT22;21924;51.934;7.414;2023-02-28T08:56:49;2.00;99.90
35804;DHT22;21924;51.934;7.414;2023-02-28T08:59:34;2.10;99.90
35804;DHT22;21924;51.934;7.414;2023-02-28T09:02:18;2.10;99.90
35804;DHT22;21924;51.934;7.414;2023-02-28T09:05:03;2.20;99.90
35804;DHT22;21924;51.934;7.414;2023-02-28T09:07:47;2.20;99.90
35804;DHT22;21924;51.934;7.414;2023-02-28T09:10:32;2.30;99.90
35804;DHT22;21924;51.934;7.414;2023-02-28T09:13:16;2.30;99.90
35804;DHT22;21924;51.934;7.414;2023-02-28T09:16:03;2.40;99.90
35804;DHT22;21924;51.934;7.414;2023-02-28T09:18:48;2.50;99.90
35804;DHT22;21924;51.934;7.414;2023-02-28T09:21:32;2.60;99.90
35804;DHT22;21924;51.934;7.414;2023-02-28T09:24:17;2.60;99.90
35804;DHT22;21924;51.934;7.414;2023-02-28T09:27:02;2.70;99.90
35804;DHT22;21924;51.934;7.414;2023-02-28T09:29:46;2.80;99.90
35804;DHT22;21924;51.934;7.414;2023-02-28T09:32:30;2.80;99.90
35804;DHT22;21924;51.934;7.414;2023-02-28T09:35:15;2.90;99.90
35804;DHT22;21924;51.934;7.414;2023-02-28T09:38:00;3.00;99.90
35804;DHT22;21924;51.934;7.414;2023-02-28T09:40:48;3.00;99.90
35804;DHT22;21924;51.934;7.414;2023-02-28T09:43:36;3.10;99.90
35804;DHT22;21924;51.934;7.414;2023-02-28T09:46:28;3.20;99.90
35804;DHT22;21924;51.934;7.414;2023-02-28T09:49:23;3.30;99.90
35804;DHT22;21924;51.934;7.414;2023-02-28T09:52:21;3.30;99.90
35804;DHT22;21924;51.934;7.414;2023-02-28T10:01:33;3.60;99.90
35804;DHT22;21924;51.934;7.414;2023-02-28T10:07:48;3.80;99.90
35804;DHT22;21924;51.934;7.414;2023-02-28T10:10:53;3.80;99.90
35804;DHT22;21924;51.934;7.414;2023-02-28T10:16:48;3.90;99.90
35804;DHT22;21924;51.934;7.414;2023-02-28T10:19:52;4.10;99.90
35804;DHT22;21924;51.934;7.414;2023-02-28T10:22:44;4.30;99.90
35804;DHT22;21924;51.934;7.414;2023-02-28T10:25:36;4.20;99.90
35804;DHT22;21924;51.934;7.414;2023-02-28T10:28:21;4.10;99.90
35804;DHT22;21924;51.934;7.414;2023-02-28T10:31:11;4.20;99.90
35804;DHT22;21924;51.934;7.414;2023-02-28T10:33:59;4.20;99.90
35804;DHT22;21924;51.934;7.414;2023-02-28T10:36:43;4.40;99.90
35804;DHT22;21924;51.934;7.414;2023-02-28T10:39:54;4.40;99.90
35804;DHT22;21924;51.934;7.414;2023-02-28T10:42:39;4.70;99.90
35804;DHT22;21924;51.934;7.414;2023-02-28T10:45:23;4.70;99.90
35804;DHT22;21924;51.934;7.414;2023-02-28T10:50:54;4.90;99.90
35804;DHT22;21924;51.934;7.414;2023-02-28T10:53:50;4.90;99.90
35804;DHT22;21924;51.934;7.414;2023-02-28T10:56:34;4.90;99.90
35804;DHT22;21924;51.934;7.414;2023-02-28T10:59:28;5.00;99.90
35804;DHT22;21924;51.934;7.414;2023-02-28T11:02:33;5.00;99.90
35804;DHT22;21924;51.934;7.414;2023-02-28T11:05:36;4.90;99.90
35804;DHT22;21924;51.934;7.414;2023-02-28T11:08:20;4.70;99.90
35804;DHT22;21924;51.934;7.414;2023-02-28T11:11:05;4.90;99.90
35804;DHT22;21924;51.934;7.414;2023-02-28T11:13:53;4.90;99.90
35804;DHT22;21924;51.934;7.414;2023-02-28T11:16:38;4.90;99.90
35804;DHT22;21924;51.934;7.414;2023-02-28T11:19:29;5.20;99.90
35804;DHT22;21924;51.934;7.414;2023-02-28T11:22:19;5.10;99.90
35804;DHT22;21924;51.934;7.414;2023-02-28T11:25:13;5.00;99.90
35804;DHT22;21924;51.934;7.414;2023-02-28T11:28:02;5.20;99.90
35804;DHT22;21924;51.934;7.414;2023-02-28T11:33:57;5.30;99.90
35804;DHT22;21924;51.934;7.414;2023-02-28T11:36:41;5.40;99.90
35804;DHT22;21924;51.934;7.414;2023-02-28T11:39:28;5.60;99.90
35804;DHT22;21924;51.934;7.414;2023-02-28T11:42:28;5.70;99.90
35804;DHT22;21924;51.934;7.414;2023-02-28T11:46:17;5.60;99.90
35804;DHT22;21924;51.934;7.414;2023-02-28T11:55:08;5.80;99.90
35804;DHT22;21924;51.934;7.414;2023-02-28T12:04:44;5.80;99.90
35804;DHT22;21924;51.934;7.414;2023-02-28T12:07:42;6.10;99.90
35804;DHT22;21924;51.934;7.414;2023-02-28T12:10:56;6.30;99.90
35804;DHT22;21924;51.934;7.414;2023-02-28T12:13:53;6.10;99.90
35804;DHT22;21924;51.934;7.414;2023-02-28T12:17:02;6.30;99.90
35804;DHT22;21924;51.934;7.414;2023-02-28T12:25:50;6.40;99.90
35804;DHT22;21924;51.934;7.414;2023-02-28T12:28:47;6.30;99.90
35804;DHT22;21924;51.934;7.414;2023-02-28T12:31:40;6.00;99.90
35804;DHT22;21924;51.934;7.414;2023-02-28T12:34:29;6.30;99.90
35804;DHT22;21924;51.934;7.414;2023-02-28T12:37:27;6.50;99.90
35804;DHT22;21924;51.934;7.414;2023-02-28T12:40:20;6.60;99.90
35804;DHT22;21924;51.934;7.414;2023-02-28T12:43:06;6.30;99.90
35804;DHT22;21924;51.934;7.414;2023-02-28T12:46:07;6.40;99.90
35804;DHT22;21924;51.934;7.414;2023-02-28T12:48:56;6.50;99.90
35804;DHT22;21924;51.934;7.414;2023-02-28T12:51:41;6.10;99.90
35804;DHT22;21924;51.934;7.414;2023-02-28T12:58:01;6.10;99.90
35804;DHT22;21924;51.934;7.414;2023-02-28T13:10:21;6.30;99.90
35804;DHT22;21924;51.934;7.414;2023-02-28T13:13:05;6.10;99.90
35804;DHT22;21924;51.934;7.414;2023-02-28T13:16:08;6.20;99.90
35804;DHT22;21924;51.934;7.414;2023-02-28T13:19:09;6.00;99.90
35804;DHT22;21924;51.934;7.414;2023-02-28T13:21:54;6.20;99.90
35804;DHT22;21924;51.934;7.414;2023-02-28T13:24:57;6.40;99.90
35804;DHT22;21924;51.934;7.414;2023-02-28T13:27:42;6.10;99.90
35804;DHT22;21924;51.934;7.414;2023-02-28T13:34:05;6.00;99.90
35804;DHT22;21924;51.934;7.414;2023-02-28T13:36:41;6.30;99.90
35804;DHT22;21924;51.934;7.414;2023-02-28T13:39:45;6.20;99.90
35804;DHT22;21924;51.934;7.414;2023-02-28T13:42:47;6.00;99.90
35804;DHT22;21924;51.934;7.414;2023-02-28T13:45:33;5.90;99.90
35804;DHT22;21924;51.934;7.414;2023-02-28T13:48:25;5.70;99.90
35804;DHT22;21924;51.934;7.414;2023-02-28T13:51:35;5.50;99.90
35804;DHT22;21924;51.934;7.414;2023-02-28T13:57:57;5.50;99.90
35804;DHT22;21924;51.934;7.414;2023-02-28T14:04:49;5.40;99.90
35804;DHT22;21924;51.934;7.414;2023-02-28T14:07:10;5.40;99.90
35804;DHT22;21924;51.934;7.414;2023-02-28T14:10:06;5.50;99.90
35804;DHT22;21924;51.934;7.414;2023-02-28T14:16:08;5.60;99.90
35804;DHT22;21924;51.934;7.414;2023-02-28T14:18:59;5.50;99.90
35804;DHT22;21924;51.934;7.414;2023-02-28T14:24:51;5.50;99.90
35804;DHT22;21924;51.934;7.414;2023-02-28T14:30:51;5.50;99.90
35804;DHT22;21924;51.934;7.414;2023-02-28T14:36:43;5.50;99.90
35804;DHT22;21924;51.934;7.414;2023-02-28T14:39:29;5.60;99.90
35804;DHT22;21924;51.934;7.414;2023-02-28T14:42:34;5.60;99.90
35804;DHT22;21924;51.934;7.414;2023-02-28T14:45:20;5.50;99.90
35804;DHT22;21924;51.934;7.414;2023-02-28T14:48:08;5.40;99.90
35804;DHT22;21924;51.934;7.414;2023-02-28T14:50:59;5.30;99.90
35804;DHT22;21924;51.934;7.414;2023-02-28T14:53:44;5.40;99.90
35804;DHT22;21924;51.934;7.414;2023-02-28T14:56:36;5.40;99.90
35804;DHT22;21924;51.934;7.414;2023-02-28T14:59:35;5.40;99.90
35804;DHT22;21924;51.934;7.414;2023-02-28T15:02:24;5.30;99.90
35804;DHT22;21924;51.934;7.414;2023-02-28T15:08:14;5.30;99.90
35804;DHT22;21924;51.934;7.414;2023-02-28T15:11:01;5.30;99.90
35804;DHT22;21924;51.934;7.414;2023-02-28T15:13:48;5.30;99.90
35804;DHT22;21924;51.934;7.414;2023-02-28T15:16:41;5.20;99.90
35804;DHT22;21924;51.934;7.414;2023-02-28T15:19:30;5.30;99.90
35804;DHT22;21924;51.934;7.414;2023-02-28T15:22:17;5.10;99.90
35804;DHT22;21924;51.934;7.414;2023-02-28T15:25:04;5.10;99.90
35804;DHT22;21924;51.934;7.414;2023-02-28T15:27:53;5.10;99.90
35804;DHT22;21924;51.934;7.414;2023-02-28T15:30:38;5.20;99.90
35804;DHT22;21924;51.934;7.414;2023-02-28T15:33:28;5.10;99.90
35804;DHT22;21924;51.934;7.414;2023-02-28T15:36:16;5.10;99.90
35804;DHT22;21924;51.934;7.414;2023-02-28T15:39:02;5.10;99.90
35804;DHT22;21924;51.934;7.414;2023-02-28T15:41:46;5.10;99.90
35804;DHT22;21924;51.934;7.414;2023-02-28T15:44:33;5.10;99.90
35804;DHT22;21924;51.934;7.414;2023-02-28T15:47:20;5.00;99.90
35804;DHT22;21924;51.934;7.414;2023-02-28T15:50:12;5.00;99.90
35804;DHT22;21924;51.934;7.414;2023-02-28T15:52:57;4.90;99.90
35804;DHT22;21924;51.934;7.414;2023-02-28T15:55:42;4.80;99.90
35804;DHT22;21924;51.934;7.414;2023-02-28T15:58:26;4.90;99.90
35804;DHT22;21924;51.934;7.414;2023-02-28T16:01:28;4.80;99.90
35804;DHT22;21924;51.934;7.414;2023-02-28T16:04:17;4.80;99.90
35804;DHT22;21924;51.934;7.414;2023-02-28T16:07:04;4.70;99.90
35804;DHT22;21924;51.934;7.414;2023-02-28T16:09:49;4.70;99.90
35804;DHT22;21924;51.934;7.414;2023-02-28T16:12:36;4.60;99.90
35804;DHT22;21924;51.934;7.414;2023-02-28T16:15:29;4.60;99.90
35804;DHT22;21924;51.934;7.414;2023-02-28T16:18:14;4.60;99.90
35804;DHT22;21924;51.934;7.414;2023-02-28T16:20:59;4.50;99.90
35804;DHT22;21924;51.934;7.414;2023-02-28T16:23:43;4.50;99.90
35804;DHT22;21924;51.934;7.414;2023-02-28T16:26:28;4.50;99.90
35804;DHT22;21924;51.934;7.414;2023-02-28T16:29:35;4.40;99.90
35804;DHT22;21924;51.934;7.414;2023-02-28T16:32:19;4.30;99.90
35804;DHT22;21924;51.934;7.414;2023-02-28T16:35:05;4.30;99.90
35804;DHT22;21924;51.934;7.414;2023-02-28T16:37:53;4.20;99.90
35804;DHT22;21924;51.934;7.414;2023-02-28T16:40:38;4.20;99.90
35804;DHT22;21924;51.934;7.414;2023-02-28T16:43:24;4.10;99.90
35804;DHT22;21924;51.934;7.414;2023-02-28T16:46:11;4.10;99.90
35804;DHT22;21924;51.934;7.414;2023-02-28T16:48:56;4.00;99.90
35804;DHT22;21924;51.934;7.414;2023-02-28T16:51:41;4.00;99.90
35804;DHT22;21924;51.934;7.414;2023-02-28T16:54:25;3.90;99.90
35804;DHT22;21924;51.934;7.414;2023-02-28T16:57:19;3.80;99.90
35804;DHT22;21924;51.934;7.414;2023-02-28T17:00:06;3.80;99.90
35804;DHT22;21924;51.934;7.414;2023-02-28T17:02:52;3.80;99.90
35804;DHT22;21924;51.934;7.414;2023-02-28T17:05:38;3.70;99.90
35804;DHT22;21924;51.934;7.414;2023-02-28T17:08:23;3.60;99.90
35804;DHT22;21924;51.934;7.414;2023-02-28T17:11:08;3.50;99.90
35804;DHT22;21924;51.934;7.414;2023-02-28T17:13:53;3.50;99.90
35804;DHT22;21924;51.934;7.414;2023-02-28T17:16:41;3.40;99.90
35804;DHT22;21924;51.934;7.414;2023-02-28T17:19:26;3.30;99.90
35804;DHT22;21924;51.934;7.414;2023-02-28T17:22:10;3.20;99.90
35804;DHT22;21924;51.934;7.414;2023-02-28T17:24:55;3.20;99.90
35804;DHT22;21924;51.934;7.414;2023-02-28T17:27:43;3.10;99.90
35804;DHT22;21924;51.934;7.414;2023-02-28T17:30:28;3.20;99.90
35804;DHT22;21924;51.934;7.414;2023-02-28T17:33:12;3.10;99.90
35804;DHT22;21924;51.934;7.414;2023-02-28T17:35:56;3.00;99.90
35804;DHT22;21924;51.934;7.414;2023-02-28T17:38:40;3.00;99.90
35804;DHT22;21924;51.934;7.414;2023-02-28T17:41:25;2.90;99.90
35804;DHT22;21924;51.934;7.414;2023-02-28T17:44:14;2.80;99.90
35804;DHT22;21924;51.934;7.414;2023-02-28T17:46:59;2.70;99.90
35804;DHT22;21924;51.934;7.414;2023-02-28T17:49:43;2.80;99.90
35804;DHT22;21924;51.934;7.414;2023-02-28T17:52:28;2.80;99.90
35804;DHT22;21924;51.934;7.414;2023-02-28T17:55:13;2.70;99.90
35804;DHT22;21924;51.934;7.414;2023-02-28T17:57:57;2.60;99.90
35804;DHT22;21924;51.934;7.414;2023-02-28T18:00:41;2.60;99.90
35804;DHT22;21924;51.934;7.414;2023-02-28T18:03:26;2.50;99.90
35804;DHT22;21924;51.934;7.414;2023-02-28T18:06:23;2.50;99.90
35804;DHT22;21924;51.934;7.414;2023-02-28T18:09:08;2.40;99.90
35804;DHT22;21924;51.934;7.414;2023-02-28T18:11:54;2.40;99.90
35804;DHT22;21924;51.934;7.414;2023-02-28T18:14:39;2.30;99.90
35804;DHT22;21924;51.934;7.414;2023-02-28T18:17:23;2.30;99.90
35804;DHT22;21924;51.934;7.414;2023-02-28T18:20:09;2.30;99.90
35804;DHT22;21924;51.934;7.414;2023-02-28T18:22:54;2.30;99.90
35804;DHT22;21924;51.934;7.414;2023-02-28T18:25:39;2.30;99.90
35804;DHT22;21924;51.934;7.414;2023-02-28T18:28:24;2.10;99.90
35804;DHT22;21924;51.934;7.414;2023-02-28T18:31:15;2.20;99.90
35804;DHT22;21924;51.934;7.414;2023-02-28T18:34:00;2.20;99.90
35804;DHT22;21924;51.934;7.414;2023-02-28T18:36:44;2.10;99.90
35804;DHT22;21924;51.934;7.414;2023-02-28T18:39:30;2.10;99.90
35804;DHT22;21924;51.934;7.414;2023-02-28T18:42:15;2.10;99.90
35804;DHT22;21924;51.934;7.414;2023-02-28T18:44:59;2.10;99.90
35804;DHT22;21924;51.934;7.414;2023-02-28T18:47:43;2.10;99.90
35804;DHT22;21924;51.934;7.414;2023-02-28T18:50:28;2.20;99.90
35804;DHT22;21924;51.934;7.414;2023-02-28T18:53:12;2.20;99.90
35804;DHT22;21924;51.934;7.414;2023-02-28T18:55:59;2.20;99.90
35804;DHT22;21924;51.934;7.414;2023-02-28T18:58:44;2.20;99.90
35804;DHT22;21924;51.934;7.414;2023-02-28T19:01:28;2.10;99.90
35804;DHT22;21924;51.934;7.414;2023-02-28T19:04:15;2.00;99.90
35804;DHT22;21924;51.934;7.414;2023-02-28T19:06:59;2.00;99.90
35804;DHT22;21924;51.934;7.414;2023-02-28T19:09:43;2.00;99.90
35804;DHT22;21924;51.934;7.414;2023-02-28T19:12:27;2.00;99.90
35804;DHT22;21924;51.934;7.414;2023-02-28T19:15:12;2.00;99.90
35804;DHT22;21924;51.934;7.414;2023-02-28T19:17:56;2.00;99.90
35804;DHT22;21924;51.934;7.414;2023-02-28T19:20:40;1.90;99.90
35804;DHT22;21924;51.934;7.414;2023-02-28T19:23:25;1.90;99.90
35804;DHT22;21924;51.934;7.414;2023-02-28T19:26:13;1.80;99.90
35804;DHT22;21924;51.934;7.414;2023-02-28T19:28:57;1.80;99.90
35804;DHT22;21924;51.934;7.414;2023-02-28T19:31:41;1.70;99.90
35804;DHT22;21924;51.934;7.414;2023-02-28T19:34:26;1.70;99.90
35804;DHT22;21924;51.934;7.414;2023-02-28T19:37:10;1.70;99.90
35804;DHT22;21924;51.934;7.414;2023-02-28T19:39:54;1.70;99.90
35804;DHT22;21924;51.934;7.414;2023-02-28T19:42:39;1.60;99.90
35804;DHT22;21924;51.934;7.414;2023-02-28T19:45:24;1.60;99.90